Time;durP1;ratioP1;P1;durP2;ratioP2;P2;SDS_P1;SDS_P2;PMS_P1;PMS_P2;Temp;Humidity;BMP_temperature;BMP_pressure;BME280_temperature;BME280_humidity;BME280_pressure;Samples;Min_cycle;Max_cycle;Signal;HPM_P1;HPM_P2
2023/03/24 00:02:12;;;;;;;22.65;3.05;;;9.70;99.90;;;;;;4999902;28;20572;-74
2023/03/24 00:04:41;;;;;;;24.52;3.10;;;9.70;99.90;;;;;;4999967;28;20144;-74
2023/03/24 00:07:08;;;;;;;20.50;2.60;;;9.70;99.90;;;;;;4989364;28;20125;-74
2023/03/24 00:09:35;;;;;;;28.65;3.47;;;9.70;99.90;;;;;;4981941;28;20030;-75
2023/03/24 00:12:01;;;;;;;24.02;2.50;;;9.70;99.90;;;;;;4989121;28;20038;-75
2023/03/24 00:14:29;;;;;;;28.58;2.88;;;9.80;99.90;;;;;;4990943;28;20666;-74
2023/03/24 00:16:57;;;;;;;24.58;3.00;;;9.80;99.90;;;;;;4981820;28;20045;-75
2023/03/24 00:19:22;;;;;;;24.67;2.92;;;9.80;99.90;;;;;;4982267;28;20034;-75
2023/03/24 00:21:48;;;;;;;30.95;3.35;;;9.90;99.90;;;;;;4986820;28;20092;-74
2023/03/24 00:24:14;;;;;;;26.42;2.88;;;9.90;99.90;;;;;;4999181;28;20046;-74
2023/03/24 00:26:40;;;;;;;29.65;2.97;;;9.90;99.90;;;;;;4994443;28;20057;-75
2023/03/24 00:29:08;;;;;;;35.15;3.70;;;9.90;99.90;;;;;;4999584;28;20026;-74
2023/03/24 00:31:38;;;;;;;27.27;3.15;;;9.90;99.90;;;;;;4996717;28;20441;-74
2023/03/24 00:34:07;;;;;;;27.65;3.33;;;9.90;99.90;;;;;;4998506;28;20497;-75
2023/03/24 00:36:34;;;;;;;28.33;4.05;;;9.90;99.90;;;;;;4989624;28;20045;-75
2023/03/24 00:39:00;;;;;;;25.40;3.22;;;9.80;99.90;;;;;;4995391;28;20022;-74
2023/03/24 00:41:26;;;;;;;29.15;3.65;;;9.80;99.90;;;;;;5002330;28;20056;-75
2023/03/24 00:43:57;;;;;;;28.55;3.15;;;9.90;99.90;;;;;;4977944;28;20085;-75
2023/03/24 00:46:28;;;;;;;38.05;4.03;;;9.80;99.90;;;;;;4981372;28;20486;-75
2023/03/24 00:48:56;;;;;;;31.52;3.78;;;9.90;99.90;;;;;;4981367;28;20030;-75
2023/03/24 00:51:22;;;;;;;29.70;4.53;;;9.90;99.90;;;;;;4997020;28;20038;-75
2023/03/24 00:53:48;;;;;;;30.00;3.92;;;9.90;99.90;;;;;;4987771;28;20084;-76
2023/03/24 00:56:14;;;;;;;27.80;3.45;;;9.90;99.90;;;;;;4982838;28;20057;-75
2023/03/24 00:58:40;;;;;;;27.30;3.42;;;9.90;99.90;;;;;;4998367;28;20046;-74
2023/03/24 01:01:06;;;;;;;27.08;3.45;;;9.90;99.90;;;;;;4998570;28;20087;-75
2023/03/24 01:03:33;;;;;;;33.45;3.67;;;9.80;99.90;;;;;;4977398;28;20387;-74
2023/03/24 01:06:03;;;;;;;29.52;3.63;;;9.80;99.90;;;;;;4983922;28;20041;-75
2023/03/24 01:08:29;;;;;;;20.45;3.95;;;9.80;99.90;;;;;;4977297;28;20083;-75
2023/03/24 01:10:56;;;;;;;30.55;4.75;;;9.80;99.90;;;;;;4998842;28;20034;-75
2023/03/24 01:13:27;;;;;;;28.67;3.30;;;9.80;99.90;;;;;;4996937;28;20034;-74
2023/03/24 01:15:53;;;;;;;25.33;3.63;;;9.80;99.90;;;;;;4996946;28;20103;-75
2023/03/24 01:18:20;;;;;;;31.45;3.22;;;9.80;99.90;;;;;;4981769;28;20034;-75
2023/03/24 01:20:50;;;;;;;35.83;3.75;;;9.80;99.90;;;;;;4999001;28;20104;-75
2023/03/24 01:23:20;;;;;;;23.63;3.45;;;9.70;99.90;;;;;;4987454;28;20034;-74
2023/03/24 01:25:47;;;;;;;35.50;4.50;;;9.60;99.90;;;;;;4978718;28;20084;-74
2023/03/24 01:28:20;;;;;;;28.55;4.45;;;9.50;99.90;;;;;;4994979;28;20513;-74
2023/03/24 01:30:46;;;;;;;27.95;3.47;;;9.50;99.90;;;;;;4999219;28;20030;-74
2023/03/24 01:33:11;;;;;;;34.90;4.00;;;9.40;99.90;;;;;;4998292;28;20030;-75
2023/03/24 01:35:37;;;;;;;31.83;3.92;;;9.40;99.90;;;;;;4998952;28;20038;-75
2023/03/24 01:38:08;;;;;;;37.92;4.50;;;9.30;99.90;;;;;;4981537;28;20497;-75
2023/03/24 01:40:36;;;;;;;30.70;3.25;;;9.30;99.90;;;;;;4999220;28;20132;-75
2023/03/24 01:43:02;;;;;;;35.85;3.80;;;9.30;99.90;;;;;;4995249;28;20062;-75
2023/03/24 01:45:40;;;;;;;30.08;3.63;;;9.20;99.90;;;;;;4981723;28;20045;-75
2023/03/24 01:48:10;;;;;;;26.48;3.67;;;9.20;99.90;;;;;;4980633;28;20121;-75
2023/03/24 01:50:36;;;;;;;31.55;3.63;;;9.20;99.90;;;;;;4999079;28;20036;-74
2023/03/24 01:53:02;;;;;;;30.58;4.15;;;9.20;99.90;;;;;;4998561;28;20034;-75
2023/03/24 01:55:30;;;;;;;29.77;3.67;;;9.20;99.90;;;;;;4993428;28;20093;-74
2023/03/24 01:57:59;;;;;;;40.40;3.90;;;9.30;99.90;;;;;;4996743;28;20034;-75
2023/03/24 02:00:26;;;;;;;37.70;4.65;;;9.30;99.90;;;;;;4999740;28;20029;-75
2023/03/24 02:02:57;;;;;;;30.98;4.30;;;9.30;99.90;;;;;;4998005;28;20018;-75
2023/03/24 02:05:28;;;;;;;30.85;4.35;;;9.20;99.90;;;;;;5000484;28;20069;-75
2023/03/24 02:08:18;;;;;;;29.13;3.15;;;9.20;99.90;;;;;;4992250;28;20057;-75
2023/03/24 02:10:44;;;;;;;35.03;4.55;;;9.20;99.90;;;;;;4991523;28;20029;-75
2023/03/24 02:13:10;;;;;;;36.13;4.25;;;9.20;99.90;;;;;;4988863;28;20509;-75
2023/03/24 02:16:05;;;;;;;26.98;3.95;;;9.20;99.90;;;;;;4995600;28;20366;-76
2023/03/24 02:18:53;;;;;;;22.50;2.75;;;9.20;99.90;;;;;;4952409;28;20046;-76
2023/03/24 02:21:41;;;;;;;28.25;3.97;;;9.20;99.90;;;;;;4997110;28;20370;-75
2023/03/24 02:24:48;;;;;;;30.85;4.43;;;9.20;99.90;;;;;;4996625;28;20378;-76
2023/03/24 02:27:25;;;;;;;27.92;3.10;;;9.30;99.90;;;;;;4996417;28;20204;-75
2023/03/24 02:30:18;;;;;;;25.30;3.75;;;9.30;99.90;;;;;;5003511;28;20106;-75
2023/03/24 02:33:05;;;;;;;23.88;3.53;;;9.30;99.90;;;;;;4986840;28;20085;-75
2023/03/24 02:35:51;;;;;;;19.23;2.80;;;9.20;99.90;;;;;;4991836;28;20038;-76
2023/03/24 02:38:39;;;;;;;29.00;4.32;;;9.20;99.90;;;;;;4992931;28;20030;-75
2023/03/24 02:41:07;;;;;;;39.40;3.20;;;9.20;99.90;;;;;;4995939;28;20022;-76
2023/03/24 02:43:51;;;;;;;28.00;3.67;;;9.10;99.90;;;;;;4996223;28;20049;-75
2023/03/24 02:46:24;;;;;;;33.83;4.10;;;9.10;99.90;;;;;;4994887;28;20346;-75
2023/03/24 02:49:20;;;;;;;26.17;2.97;;;9.00;99.90;;;;;;4992833;28;20217;-74
2023/03/24 02:51:54;;;;;;;26.38;3.75;;;9.00;99.90;;;;;;4990732;28;20116;-73
2023/03/24 02:54:32;;;;;;;26.17;3.70;;;8.90;99.90;;;;;;4996772;28;20033;-74
2023/03/24 02:57:10;;;;;;;27.10;3.38;;;8.90;99.90;;;;;;5006992;28;20056;-76
2023/03/24 02:59:40;;;;;;;28.10;3.15;;;8.80;99.90;;;;;;5001409;28;20036;-76
2023/03/24 03:02:08;;;;;;;27.00;2.83;;;8.70;99.90;;;;;;4993277;28;20032;-77
2023/03/24 03:04:39;;;;;;;30.13;3.25;;;8.70;99.90;;;;;;4997377;28;20125;-74
2023/03/24 03:07:11;;;;;;;36.10;3.33;;;8.60;99.90;;;;;;4994845;28;20389;-74
2023/03/24 03:09:43;;;;;;;28.60;3.05;;;8.60;99.90;;;;;;4981385;28;20096;-76
2023/03/24 03:12:10;;;;;;;;;;;8.50;99.90;;;;;;4994730;28;20029;-77
2023/03/24 03:14:40;;;;;;;23.85;3.22;;;8.50;99.90;;;;;;4980815;28;20011;-75
2023/03/24 03:17:16;;;;;;;32.08;4.05;;;8.60;99.90;;;;;;4984519;28;20494;-76
2023/03/24 03:19:51;;;;;;;29.80;2.78;;;8.60;99.90;;;;;;4975477;28;20129;-75
2023/03/24 03:22:22;;;;;;;35.85;3.45;;;8.70;99.90;;;;;;4971146;28;20025;-76
2023/03/24 03:24:51;;;;;;;33.77;3.53;;;8.70;99.90;;;;;;5003667;28;20065;-76
2023/03/24 03:27:28;;;;;;;25.60;3.40;;;8.80;99.90;;;;;;5001555;28;20291;-76
2023/03/24 03:30:03;;;;;;;23.67;4.03;;;8.90;99.90;;;;;;5001696;28;20057;-75
2023/03/24 03:32:38;;;;;;;33.67;3.40;;;8.90;99.90;;;;;;4999830;28;20037;-75
2023/03/24 03:35:21;;;;;;;24.00;2.88;;;9.00;99.90;;;;;;4995807;28;20501;-75
2023/03/24 03:38:09;;;;;;;32.58;3.15;;;8.90;99.90;;;;;;4985053;28;20084;-75
2023/03/24 03:40:40;;;;;;;24.13;3.17;;;8.90;99.90;;;;;;4974911;28;20030;-75
2023/03/24 03:43:06;;;;;;;;;;;8.80;99.90;;;;;;5000439;28;20112;-74
2023/03/24 03:45:34;;;;;;;25.70;2.83;;;8.70;99.90;;;;;;5000498;28;19921;-75
2023/03/24 03:48:00;;;;;;;23.77;3.22;;;8.60;99.90;;;;;;5001324;28;20029;-73
2023/03/24 03:50:27;;;;;;;29.75;2.50;;;8.50;99.90;;;;;;5000566;28;20091;-73
2023/03/24 03:52:52;;;;;;;25.13;4.60;;;8.50;99.90;;;;;;5000325;28;20029;-76
2023/03/24 03:55:18;;;;;;;31.48;2.75;;;8.40;99.90;;;;;;4991546;28;20394;-76
2023/03/24 03:57:44;;;;;;;22.90;3.13;;;8.50;99.90;;;;;;4975652;28;20527;-76
2023/03/24 04:00:18;;;;;;;28.90;2.85;;;8.50;99.90;;;;;;4998180;28;20029;-76
2023/03/24 04:03:09;;;;;;;33.55;3.10;;;8.50;99.90;;;;;;5000440;28;20060;-75
2023/03/24 04:05:51;;;;;;;26.77;2.77;;;8.40;99.90;;;;;;4993827;28;20421;-75
2023/03/24 04:08:30;;;;;;;32.38;3.58;;;8.40;99.90;;;;;;4979610;28;20131;-76
2023/03/24 04:11:33;;;;;;;26.75;3.03;;;8.30;99.90;;;;;;4993627;28;20030;-76
2023/03/24 04:14:33;;;;;;;24.70;2.33;;;8.20;99.90;;;;;;4973806;28;20077;-75
2023/03/24 04:17:18;;;;;;;22.00;2.72;;;8.20;99.90;;;;;;4974804;28;20057;-75
2023/03/24 04:19:50;;;;;;;27.90;2.45;;;8.10;99.90;;;;;;4999540;28;20045;-75
2023/03/24 04:22:47;;;;;;;25.38;2.40;;;8.10;99.90;;;;;;4997452;28;20588;-75
2023/03/24 04:25:39;;;;;;;26.35;3.22;;;8.10;99.90;;;;;;4980654;28;20092;-76
2023/03/24 04:28:32;;;;;;;23.73;2.85;;;8.00;99.90;;;;;;4997482;28;20029;-76
2023/03/24 04:31:15;;;;;;;22.80;3.00;;;8.00;99.90;;;;;;5000051;28;20034;-75
2023/03/24 04:33:57;;;;;;;28.88;3.42;;;8.00;99.90;;;;;;4979913;28;20037;-75
2023/03/24 04:36:44;;;;;;;28.05;3.05;;;8.00;99.90;;;;;;4989374;28;20041;-76
2023/03/24 04:39:17;;;;;;;21.55;2.42;;;8.10;99.90;;;;;;4994145;28;20048;-76
2023/03/24 04:41:46;;;;;;;28.63;2.67;;;8.10;99.90;;;;;;4998867;28;20156;-76
2023/03/24 04:44:16;;;;;;;27.88;2.75;;;8.10;99.90;;;;;;4996427;28;20041;-76
2023/03/24 04:46:42;;;;;;;30.23;2.78;;;8.10;99.90;;;;;;4998558;28;20356;-76
2023/03/24 04:49:08;;;;;;;30.33;3.33;;;8.10;99.90;;;;;;4998082;28;20095;-77
2023/03/24 04:51:34;;;;;;;28.15;2.83;;;8.20;99.90;;;;;;4980003;28;20413;-76
2023/03/24 04:54:00;;;;;;;29.10;3.03;;;8.20;99.90;;;;;;4991375;28;20053;-76
2023/03/24 04:56:46;;;;;;;26.20;2.58;;;8.40;99.90;;;;;;4999339;28;20401;-75
2023/03/24 04:59:12;;;;;;;31.60;3.55;;;8.50;99.90;;;;;;4999149;28;20018;-75
2023/03/24 05:01:39;;;;;;;30.08;5.20;;;8.60;99.90;;;;;;4996716;28;20105;-75
2023/03/24 05:04:05;;;;;;;20.30;2.35;;;8.60;99.90;;;;;;4996818;28;20126;-76
2023/03/24 05:06:31;;;;;;;33.58;3.80;;;8.70;99.90;;;;;;4994678;28;20077;-75
2023/03/24 05:08:58;;;;;;;39.10;3.75;;;8.70;99.90;;;;;;4998650;28;20029;-75
2023/03/24 05:11:27;;;;;;;34.20;3.58;;;8.80;99.90;;;;;;4998163;28;20113;-76
2023/03/24 05:13:53;;;;;;;37.88;3.88;;;8.90;99.90;;;;;;4995243;28;20022;-75
2023/03/24 05:16:19;;;;;;;39.38;4.38;;;8.90;99.90;;;;;;5005638;28;20034;-76
2023/03/24 05:18:45;;;;;;;30.50;4.18;;;8.90;99.90;;;;;;4996563;28;20082;-75
2023/03/24 05:21:10;;;;;;;40.20;4.50;;;9.00;99.90;;;;;;4996968;28;20429;-75
2023/03/24 05:23:37;;;;;;;45.53;4.18;;;9.10;99.90;;;;;;4999949;28;20038;-75
2023/03/24 05:26:03;;;;;;;33.58;4.20;;;9.10;99.90;;;;;;4999459;28;20042;-75
2023/03/24 05:28:29;;;;;;;42.92;5.00;;;9.20;99.90;;;;;;4993005;28;20450;-74
2023/03/24 05:30:55;;;;;;;36.05;4.00;;;9.30;99.90;;;;;;4996022;28;20038;-75
2023/03/24 05:33:20;;;;;;;32.92;3.72;;;9.30;99.90;;;;;;4988656;28;20113;-75
2023/03/24 05:35:46;;;;;;;36.85;4.25;;;9.40;99.90;;;;;;5000369;28;20030;-75
2023/03/24 05:38:12;;;;;;;37.10;4.88;;;9.40;99.90;;;;;;4990317;28;20088;-75
2023/03/24 05:40:38;;;;;;;42.78;4.00;;;9.40;99.90;;;;;;5000286;28;20434;-74
2023/03/24 05:43:03;;;;;;;36.58;4.80;;;9.40;99.90;;;;;;4998749;28;20148;-74
2023/03/24 05:45:29;;;;;;;33.20;3.78;;;9.50;99.90;;;;;;4999317;28;20037;-75
2023/03/24 05:47:55;;;;;;;38.00;4.25;;;9.50;99.90;;;;;;4995621;28;20049;-74
2023/03/24 05:50:22;;;;;;;31.38;3.80;;;9.50;99.90;;;;;;4999017;28;20144;-75
2023/03/24 05:52:49;;;;;;;33.80;5.20;;;9.50;99.90;;;;;;4998119;28;20026;-75
2023/03/24 05:55:15;;;;;;;44.63;4.50;;;9.60;99.90;;;;;;4969282;28;20068;-75
2023/03/24 05:57:42;;;;;;;30.45;4.35;;;9.60;99.90;;;;;;4994500;28;20517;-75
2023/03/24 06:00:13;;;;;;;31.73;4.13;;;9.60;99.90;;;;;;4998422;28;20529;-75
2023/03/24 06:02:39;;;;;;;46.72;4.53;;;9.60;99.90;;;;;;4993465;28;20073;-75
2023/03/24 06:05:07;;;;;;;37.47;4.32;;;9.50;99.90;;;;;;4975720;28;20158;-75
2023/03/24 06:07:32;;;;;;;33.63;3.70;;;9.40;99.90;;;;;;4975850;28;20129;-75
2023/03/24 06:10:01;;;;;;;34.00;4.22;;;9.40;99.90;;;;;;5000568;28;20042;-75
2023/03/24 06:12:29;;;;;;;30.23;3.47;;;9.50;99.90;;;;;;4981165;28;20033;-75
2023/03/24 06:14:54;;;;;;;40.38;4.03;;;9.40;99.90;;;;;;4981959;28;20482;-76
2023/03/24 06:17:20;;;;;;;35.15;4.13;;;9.40;99.90;;;;;;5001378;28;20095;-75
2023/03/24 06:19:49;;;;;;;33.83;3.30;;;9.50;99.90;;;;;;4994462;28;20030;-75
2023/03/24 06:22:18;;;;;;;28.73;3.42;;;9.40;99.90;;;;;;4997832;28;20026;-75
2023/03/24 06:24:44;;;;;;;33.15;3.83;;;9.30;99.90;;;;;;5000921;28;20041;-75
2023/03/24 06:27:10;;;;;;;25.20;3.65;;;9.30;99.90;;;;;;5001631;28;20390;-75
2023/03/24 06:29:36;;;;;;;29.33;3.70;;;9.40;99.90;;;;;;5000491;28;20532;-75
2023/03/24 06:32:04;;;;;;;29.10;2.90;;;9.60;99.90;;;;;;4999702;28;20022;-74
2023/03/24 06:34:31;;;;;;;28.73;3.10;;;9.70;99.90;;;;;;4985074;28;20036;-75
2023/03/24 06:36:56;;;;;;;24.00;2.88;;;9.60;99.90;;;;;;5001947;28;20025;-75
2023/03/24 06:39:22;;;;;;;22.33;2.47;;;9.60;99.90;;;;;;5000244;28;20462;-76
2023/03/24 06:41:48;;;;;;;20.23;2.70;;;9.60;99.90;;;;;;5002280;28;20132;-74
2023/03/24 06:44:14;;;;;;;27.58;2.63;;;9.50;99.90;;;;;;4999568;28;20140;-75
2023/03/24 06:46:40;;;;;;;31.42;3.70;;;9.50;99.90;;;;;;4989733;28;20042;-73
2023/03/24 06:49:06;;;;;;;16.35;2.17;;;9.70;99.90;;;;;;4984047;28;20034;-75
2023/03/24 06:51:31;;;;;;;17.63;2.20;;;9.80;99.90;;;;;;5001059;28;20022;-75
2023/03/24 06:53:57;;;;;;;21.13;2.13;;;9.90;99.90;;;;;;5001372;28;20191;-75
2023/03/24 06:56:23;;;;;;;23.80;2.45;;;9.90;99.90;;;;;;5005037;28;20772;-75
2023/03/24 06:58:48;;;;;;;32.85;3.33;;;9.90;99.90;;;;;;5000087;28;20046;-75
2023/03/24 07:01:14;;;;;;;19.27;2.38;;;10.00;99.90;;;;;;4990491;28;20034;-73
2023/03/24 07:03:41;;;;;;;24.13;3.30;;;10.10;99.90;;;;;;5002265;28;20432;-75
2023/03/24 07:06:07;;;;;;;19.42;2.33;;;10.20;99.90;;;;;;5008795;28;20113;-75
2023/03/24 07:08:32;;;;;;;19.90;1.85;;;10.20;99.90;;;;;;4990677;28;20585;-75
2023/03/24 07:10:58;;;;;;;18.55;2.17;;;10.30;99.90;;;;;;4987923;28;20401;-75
2023/03/24 07:13:24;;;;;;;18.45;2.30;;;10.30;99.90;;;;;;5003611;28;20029;-76
2023/03/24 07:15:50;;;;;;;21.02;2.50;;;10.30;99.90;;;;;;4991623;28;20042;-76
2023/03/24 07:18:18;;;;;;;15.50;3.25;;;10.40;99.90;;;;;;4994768;28;20021;-75
2023/03/24 07:20:44;;;;;;;19.20;2.30;;;10.50;99.90;;;;;;4999947;28;20025;-75
2023/03/24 07:23:10;;;;;;;18.42;2.13;;;10.50;99.90;;;;;;4996200;28;20038;-74
2023/03/24 07:25:35;;;;;;;24.58;2.58;;;10.70;99.90;;;;;;4997024;28;20045;-74
2023/03/24 07:28:01;;;;;;;23.98;3.47;;;11.00;99.90;;;;;;5002895;28;20026;-75
2023/03/24 07:30:27;;;;;;;22.98;3.03;;;11.30;99.90;;;;;;4986082;28;20405;-75
2023/03/24 07:32:55;;;;;;;18.10;2.90;;;11.60;99.90;;;;;;4979506;28;20490;-75
2023/03/24 07:35:21;;;;;;;21.30;3.00;;;11.80;99.90;;;;;;4995429;28;21067;-75
2023/03/24 07:37:46;;;;;;;21.35;2.60;;;11.90;99.90;;;;;;5006340;28;20021;-75
2023/03/24 07:40:14;;;;;;;22.38;2.30;;;12.00;99.90;;;;;;5004348;28;20164;-74
2023/03/24 07:42:41;;;;;;;23.92;2.78;;;12.10;99.90;;;;;;5006318;28;20038;-75
2023/03/24 07:45:09;;;;;;;23.15;2.95;;;12.20;99.90;;;;;;5000971;28;20488;-76
2023/03/24 07:47:35;;;;;;;18.02;3.40;;;12.00;99.90;;;;;;5028400;28;20368;-75
2023/03/24 07:50:03;;;;;;;20.30;2.20;;;11.90;99.90;;;;;;5002143;28;20057;-75
2023/03/24 07:52:29;;;;;;;24.83;2.92;;;11.70;99.90;;;;;;5004718;28;20037;-75
2023/03/24 07:54:55;;;;;;;27.08;2.63;;;12.00;99.90;;;;;;4983480;28;20128;-74
2023/03/24 07:57:21;;;;;;;19.23;2.58;;;12.30;99.90;;;;;;4999858;28;20029;-75
2023/03/24 07:59:47;;;;;;;18.42;2.53;;;12.50;99.90;;;;;;4980538;28;20036;-74
2023/03/24 08:02:19;;;;;;;17.80;2.45;;;12.60;99.90;;;;;;4994875;28;20030;-75
2023/03/24 08:04:45;;;;;;;25.27;3.83;;;12.70;99.90;;;;;;5002862;28;20580;-75
2023/03/24 08:07:14;;;;;;;27.00;2.80;;;13.40;99.90;;;;;;5000186;28;20183;-75
2023/03/24 08:09:40;;;;;;;23.88;3.00;;;14.60;99.90;;;;;;4996862;28;20022;-76
2023/03/24 08:12:06;;;;;;;24.42;2.95;;;15.50;98.10;;;;;;5003256;28;20379;-75
2023/03/24 08:14:31;;;;;;;19.33;2.20;;;15.10;94.00;;;;;;4989135;28;20042;-75
2023/03/24 08:16:57;;;;;;;22.20;2.95;;;15.40;99.50;;;;;;4984450;28;20075;-76
2023/03/24 08:19:22;;;;;;;27.80;3.40;;;15.20;94.80;;;;;;4998756;28;20030;-75
2023/03/24 08:21:48;;;;;;;21.40;2.88;;;15.00;98.50;;;;;;4993241;28;20045;-74
2023/03/24 08:24:14;;;;;;;20.80;2.92;;;15.50;97.30;;;;;;5000889;28;20033;-75
2023/03/24 08:26:41;;;;;;;26.10;3.75;;;17.70;84.90;;;;;;4994150;28;20483;-75
2023/03/24 08:29:07;;;;;;;26.58;4.03;;;17.30;77.00;;;;;;4994581;28;20030;-73
2023/03/24 08:31:34;;;;;;;26.08;3.30;;;16.80;82.10;;;;;;4998076;28;20080;-76
2023/03/24 08:34:00;;;;;;;20.45;3.85;;;15.80;87.20;;;;;;4992049;28;20041;-74
2023/03/24 08:36:26;;;;;;;29.23;3.85;;;15.40;95.70;;;;;;5004499;28;20029;-75
2023/03/24 08:38:54;;;;;;;23.05;3.88;;;14.60;98.50;;;;;;4995063;28;20026;-75
2023/03/24 08:41:21;;;;;;;30.35;3.90;;;14.00;99.90;;;;;;4976883;28;20171;-75
2023/03/24 08:43:47;;;;;;;25.33;3.20;;;13.80;99.90;;;;;;4969544;28;20045;-74
2023/03/24 08:46:14;;;;;;;18.38;2.70;;;13.40;99.90;;;;;;4969687;28;20073;-73
2023/03/24 08:48:40;;;;;;;22.02;3.10;;;14.00;99.90;;;;;;4970002;28;20061;-74
2023/03/24 08:51:13;;;;;;;22.65;2.60;;;14.60;99.90;;;;;;4970423;28;20489;-74
2023/03/24 08:53:39;;;;;;;22.35;3.20;;;16.40;95.20;;;;;;4993888;28;20026;-75
2023/03/24 08:56:05;;;;;;;18.98;2.92;;;16.90;80.60;;;;;;4990823;28;20551;-75
2023/03/24 08:58:31;;;;;;;15.75;2.20;;;18.40;78.40;;;;;;4976741;28;20037;-75
2023/03/24 09:00:57;;;;;;;13.52;2.60;;;20.60;61.20;;;;;;4991529;28;20030;-76
2023/03/24 09:03:22;;;;;;;12.57;2.97;;;21.30;51.20;;;;;;4989934;28;20116;-76
2023/03/24 09:05:48;;;;;;;10.55;1.90;;;21.60;51.60;;;;;;4986020;28;20389;-76
2023/03/24 09:08:17;;;;;;;15.88;2.00;;;22.60;50.20;;;;;;4992424;28;20072;-76
2023/03/24 09:10:45;;;;;;;11.25;2.13;;;22.90;45.80;;;;;;4965667;28;20088;-75
2023/03/24 09:13:12;;;;;;;12.00;2.20;;;24.80;44.30;;;;;;4971243;28;20161;-76
2023/03/24 09:15:37;;;;;;;9.07;1.60;;;25.60;41.10;;;;;;4983929;28;20027;-77
2023/03/24 09:18:03;;;;;;;6.32;1.45;;;25.70;40.60;;;;;;4982025;28;20041;-76
2023/03/24 09:20:29;;;;;;;5.28;1.50;;;26.50;38.90;;;;;;4980179;28;20549;-75
2023/03/24 09:22:54;;;;;;;7.93;1.70;;;25.50;37.20;;;;;;4983249;28;20057;-74
2023/03/24 09:25:21;;;;;;;11.20;2.20;;;23.90;40.60;;;;;;4954484;28;20470;-76
2023/03/24 09:27:47;;;;;;;10.80;2.10;;;22.50;44.00;;;;;;4979411;28;20034;-75
2023/03/24 09:30:15;;;;;;;13.43;2.53;;;21.60;48.00;;;;;;4977075;28;20155;-76
2023/03/24 09:32:40;;;;;;;10.05;1.85;;;20.20;49.10;;;;;;4986104;28;20050;-74
2023/03/24 09:35:07;;;;;;;14.60;2.10;;;18.80;55.70;;;;;;4966757;28;20137;-76
2023/03/24 09:37:34;;;;;;;12.82;2.30;;;18.80;57.70;;;;;;4982736;28;20037;-74
2023/03/24 09:40:00;;;;;;;13.85;2.30;;;18.50;57.80;;;;;;4984038;28;20037;-74
2023/03/24 09:42:32;;;;;;;19.73;2.72;;;18.20;61.00;;;;;;4983085;28;20476;-75
2023/03/24 09:45:03;;;;;;;13.73;2.47;;;17.80;63.60;;;;;;5001506;28;20063;-75
2023/03/24 09:47:52;;;;;;;18.02;2.22;;;17.90;65.20;;;;;;4994730;28;20017;-75
2023/03/24 09:50:26;;;;;;;14.13;1.60;;;17.30;67.40;;;;;;4979702;28;20085;-76
2023/03/24 09:52:58;;;;;;;13.68;2.38;;;16.60;73.70;;;;;;4971732;28;20042;-74
2023/03/24 09:55:27;;;;;;;21.55;2.60;;;16.20;78.40;;;;;;5000474;28;20030;-75
2023/03/24 09:57:55;;;;;;;18.90;2.88;;;15.80;83.90;;;;;;4975853;28;20033;-75
2023/03/24 10:00:26;;;;;;;21.02;2.83;;;15.20;87.20;;;;;;4995957;28;20481;-75
2023/03/24 10:02:52;;;;;;;24.88;3.40;;;14.70;96.50;;;;;;4976222;28;20025;-74
2023/03/24 10:05:42;;;;;;;20.55;2.72;;;14.70;94.50;;;;;;4973145;28;20060;-75
2023/03/24 10:08:25;;;;;;;19.30;2.78;;;14.80;97.10;;;;;;4992645;28;20417;-75
2023/03/24 10:11:34;;;;;;;12.52;1.90;;;14.90;95.80;;;;;;4978598;28;20459;-75
2023/03/24 10:14:09;;;;;;;18.80;2.80;;;15.10;97.60;;;;;;4987636;28;20553;-76
2023/03/24 10:16:53;;;;;;;25.90;3.30;;;15.40;92.80;;;;;;4996162;28;20037;-76
2023/03/24 10:19:34;;;;;;;18.95;2.58;;;16.10;93.50;;;;;;4990082;28;20740;-75
2023/03/24 10:22:31;;;;;;;12.60;2.08;;;16.70;82.90;;;;;;5005951;28;20076;-75
2023/03/24 10:25:22;;;;;;;22.42;2.88;;;16.80;81.00;;;;;;4977960;28;20037;-75
2023/03/24 10:28:01;;;;;;;31.33;3.40;;;16.40;83.60;;;;;;4971950;28;20022;-75
2023/03/24 10:30:41;;;;;;;23.55;2.90;;;16.60;82.20;;;;;;4993389;28;20168;-75
2023/03/24 10:33:10;;;;;;;23.73;2.92;;;16.00;77.30;;;;;;4996642;28;20101;-74
2023/03/24 10:35:42;;;;;;;19.98;2.60;;;15.80;87.60;;;;;;4993338;28;20022;-75
2023/03/24 10:38:22;;;;;;;23.75;3.08;;;15.90;94.50;;;;;;4992350;28;20025;-75
2023/03/24 10:40:48;;;;;;;14.85;2.33;;;15.90;89.70;;;;;;4994157;28;20433;-76
2023/03/24 10:43:18;;;;;;;18.67;2.72;;;17.00;85.60;;;;;;4977333;28;20046;-75
2023/03/24 10:45:52;;;;;;;20.30;2.20;;;17.50;71.50;;;;;;4994913;28;20596;-75
2023/03/24 10:48:34;;;;;;;18.65;2.92;;;17.00;74.40;;;;;;4989405;28;20068;-74
2023/03/24 10:50:59;;;;;;;22.52;3.40;;;18.10;69.60;;;;;;4974020;28;20034;-76
2023/03/24 10:53:26;;;;;;;22.25;2.90;;;18.60;64.60;;;;;;4981711;28;20490;-75
2023/03/24 10:55:51;;;;;;;20.80;3.17;;;17.90;73.10;;;;;;4986994;28;20030;-75
2023/03/24 10:58:45;;;;;;;17.98;2.72;;;17.90;72.60;;;;;;4997646;28;20441;-75
2023/03/24 11:01:25;;;;;;;20.58;3.33;;;18.00;72.10;;;;;;5001988;28;20045;-74
2023/03/24 11:03:51;;;;;;;27.77;4.03;;;17.30;67.20;;;;;;4997444;28;20091;-75
2023/03/24 11:06:20;;;;;;;19.08;3.28;;;16.90;82.10;;;;;;5004251;28;20513;-75
2023/03/24 11:08:46;;;;;;;17.92;2.63;;;17.60;73.20;;;;;;4995466;28;20018;-76
2023/03/24 11:11:30;;;;;;;22.92;3.22;;;18.40;69.00;;;;;;4979702;28;20081;-76
2023/03/24 11:14:01;;;;;;;21.15;3.20;;;19.00;63.50;;;;;;5000159;28;20034;-76
2023/03/24 11:16:38;;;;;;;20.92;3.60;;;18.10;64.40;;;;;;4999224;28;20037;-76
2023/03/24 11:19:05;;;;;;;18.38;2.95;;;18.10;70.60;;;;;;4990885;28;20038;-76
2023/03/24 11:21:37;;;;;;;20.60;3.85;;;18.30;67.50;;;;;;4984301;28;20033;-75
2023/03/24 11:24:10;;;;;;;19.08;3.17;;;18.40;67.60;;;;;;4983842;28;20072;-79
2023/03/24 11:26:38;;;;;;;18.40;2.75;;;18.90;64.10;;;;;;4983628;28;20042;-77
2023/03/24 11:29:08;;;;;;;21.55;3.42;;;19.40;62.90;;;;;;4980250;28;20129;-76
2023/03/24 11:31:38;;;;;;;18.63;2.70;;;18.90;58.50;;;;;;4996276;28;20107;-76
2023/03/24 11:34:12;;;;;;;22.80;3.17;;;18.20;62.30;;;;;;5002180;28;20026;-78
2023/03/24 11:36:45;;;;;;;23.80;3.90;;;17.90;69.90;;;;;;5003422;28;20076;-78
2023/03/24 11:39:16;;;;;;;23.42;3.08;;;17.20;74.20;;;;;;4984151;28;20189;-77
2023/03/24 11:42:15;;;;;;;25.92;3.50;;;16.70;81.00;;;;;;4987782;28;20087;-77
2023/03/24 11:44:51;;;;;;;21.95;3.17;;;17.00;85.50;;;;;;4997168;28;20073;-76
2023/03/24 11:47:20;;;;;;;26.05;3.08;;;17.20;77.00;;;;;;4999279;28;20034;-76
2023/03/24 11:49:57;;;;;;;26.35;3.47;;;16.60;83.30;;;;;;4995783;28;20033;-76
2023/03/24 11:52:58;;;;;;;29.23;3.28;;;16.40;91.80;;;;;;4997328;28;20028;-78
2023/03/24 11:55:52;;;;;;;23.15;2.63;;;16.60;89.10;;;;;;4962866;28;20507;-77
2023/03/24 11:58:55;;;;;;;17.65;3.75;;;16.60;90.30;;;;;;5002973;28;20030;-77
2023/03/24 12:01:29;;;;;;;17.27;3.17;;;16.60;84.20;;;;;;4983159;28;20038;-77
2023/03/24 12:04:24;;;;;;;25.92;3.25;;;16.10;87.40;;;;;;4973098;28;20434;-76
2023/03/24 12:07:32;;;;;;;17.92;3.17;;;16.20;92.30;;;;;;4990234;28;20066;-77
2023/03/24 12:10:16;;;;;;;27.23;3.05;;;16.50;87.40;;;;;;4977067;28;20037;-76
2023/03/24 12:12:47;;;;;;;22.50;2.95;;;16.90;82.80;;;;;;4990504;28;20060;-77
2023/03/24 12:15:12;;;;;;;;;;;16.90;85.50;;;;;;4989910;28;20650;-77
2023/03/24 12:17:59;;;;;;;21.73;3.88;;;16.30;81.30;;;;;;5014697;28;19917;-76
2023/03/24 12:20:31;;;;;;;22.77;3.10;;;16.20;91.70;;;;;;5002951;28;20038;-74
2023/03/24 12:23:32;;;;;;;20.73;2.92;;;15.90;91.10;;;;;;4978591;28;20026;-76
2023/03/24 12:26:23;;;;;;;21.48;3.58;;;15.40;90.40;;;;;;4976914;28;20499;-76
2023/03/24 12:29:15;;;;;;;21.92;3.55;;;15.40;94.00;;;;;;4963991;28;20042;-75
2023/03/24 12:31:55;;;;;;;17.38;2.88;;;15.50;93.90;;;;;;4981600;28;20034;-76
2023/03/24 12:34:56;;;;;;;24.67;3.50;;;15.50;92.80;;;;;;4998649;28;20100;-76
2023/03/24 12:37:25;;;;;;;;;;;15.90;89.90;;;;;;4991545;28;20087;-74
2023/03/24 12:40:09;;;;;;;22.60;2.95;;;15.70;84.30;;;;;;4995476;28;20109;-75
2023/03/24 12:42:40;;;;;;;17.35;2.78;;;15.50;90.00;;;;;;4992133;28;20045;-75
2023/03/24 12:45:21;;;;;;;20.88;3.55;;;15.50;90.20;;;;;;5000261;28;20034;-76
2023/03/24 12:47:55;;;;;;;22.40;2.63;;;15.80;94.90;;;;;;4982608;28;20050;-76
2023/03/24 12:50:29;;;;;;;19.80;2.90;;;15.70;87.00;;;;;;4980231;28;20508;-76
2023/03/24 12:53:07;;;;;;;23.60;3.13;;;15.40;82.30;;;;;;4976964;28;20522;-75
2023/03/24 12:55:37;;;;;;;19.33;2.85;;;15.40;92.60;;;;;;4990289;28;20456;-75
2023/03/24 12:58:35;;;;;;;22.77;2.78;;;15.20;90.80;;;;;;4977747;28;20454;-77
2023/03/24 13:01:13;;;;;;;23.30;3.63;;;15.30;93.00;;;;;;4978314;28;20026;-76
2023/03/24 13:03:53;;;;;;;19.95;3.00;;;16.40;85.40;;;;;;4975367;28;20823;-76
2023/03/24 13:06:24;;;;;;;21.50;2.92;;;16.70;79.60;;;;;;5000375;28;20568;-76
2023/03/24 13:09:24;;;;;;;17.67;2.85;;;16.90;77.80;;;;;;4981794;28;20036;-76